Time;durP1;ratioP1;P1;durP2;ratioP2;P2;SDS_P1;SDS_P2;PMS_P1;PMS_P2;Temp;Humidity;BMP_temperature;BMP_pressure;BME280_temperature;BME280_humidity;BME280_pressure;Samples;Min_cycle;Max_cycle;Signal;HPM_P1;HPM_P2
2021/06/17 00:01:48;;;;;;;7.90;7.20;;;19.70;99.90;;;;;;5105990;28;20163;-83
2021/06/17 00:04:14;;;;;;;9.70;8.80;;;19.60;99.90;;;;;;5107302;28;20158;-83
2021/06/17 00:06:40;;;;;;;8.23;7.43;;;19.50;99.90;;;;;;5106639;28;20158;-85
2021/06/17 00:09:06;;;;;;;13.90;8.00;;;19.50;99.90;;;;;;5106219;28;20435;-84
2021/06/17 00:11:32;;;;;;;9.93;9.00;;;19.40;99.90;;;;;;5106600;28;20228;-83
2021/06/17 00:13:58;;;;;;;9.60;8.67;;;19.40;99.90;;;;;;5105993;28;20170;-83
2021/06/17 00:16:24;;;;;;;8.40;7.70;;;19.50;99.90;;;;;;5107229;28;20421;-83
2021/06/17 00:18:53;;;;;;;8.37;7.57;;;19.40;99.90;;;;;;5106392;28;20178;-83
2021/06/17 00:21:19;;;;;;;9.40;8.50;;;19.30;99.90;;;;;;5105804;28;20431;-83
2021/06/17 00:23:45;;;;;;;8.60;7.90;;;19.40;99.90;;;;;;5106345;28;20401;-82
2021/06/17 00:26:11;;;;;;;9.90;8.93;;;19.50;99.90;;;;;;5107490;28;20163;-84
2021/06/17 00:28:36;;;;;;;10.90;9.90;;;19.50;99.90;;;;;;5107813;28;20159;-83
2021/06/17 00:31:03;;;;;;;9.30;8.27;;;19.40;99.90;;;;;;5106249;28;20253;-83
2021/06/17 00:33:29;;;;;;;10.43;9.30;;;19.40;99.90;;;;;;5106209;28;20194;-83
2021/06/17 00:35:55;;;;;;;13.27;8.87;;;19.30;99.90;;;;;;5107952;28;20425;-83
2021/06/17 00:38:21;;;;;;;11.70;10.60;;;19.30;99.90;;;;;;5111741;28;20170;-82
2021/06/17 00:40:47;;;;;;;11.17;10.10;;;19.30;99.90;;;;;;5107266;28;20463;-83
2021/06/17 00:43:22;;;;;;;9.97;9.07;;;19.20;99.90;;;;;;5107878;28;20484;-82
2021/06/17 00:45:49;;;;;;;10.37;9.27;;;19.10;99.90;;;;;;5075033;28;20170;-82
2021/06/17 00:48:16;;;;;;;11.23;9.70;;;18.90;99.90;;;;;;5106966;28;20401;-83
2021/06/17 00:50:46;;;;;;;11.33;9.70;;;18.90;99.90;;;;;;5107144;28;20463;-83
2021/06/17 00:53:13;;;;;;;10.63;9.73;;;18.80;99.90;;;;;;5105742;28;20605;-83
2021/06/17 00:55:42;;;;;;;13.30;9.80;;;18.90;99.90;;;;;;5106152;28;20403;-82
2021/06/17 00:58:09;;;;;;;11.67;10.40;;;18.80;99.90;;;;;;5105475;28;20432;-83
2021/06/17 01:00:36;;;;;;;11.10;9.87;;;18.80;99.90;;;;;;5106775;28;20411;-83
2021/06/17 01:03:03;;;;;;;11.37;10.27;;;18.60;99.90;;;;;;5109954;28;20412;-83
2021/06/17 01:05:29;;;;;;;11.17;10.17;;;18.70;99.90;;;;;;5106612;28;20396;-82
2021/06/17 01:08:11;;;;;;;12.23;11.20;;;18.60;99.90;;;;;;5107272;28;20429;-83
2021/06/17 01:11:01;;;;;;;12.37;11.27;;;18.60;99.90;;;;;;5110540;28;20434;-83
2021/06/17 01:13:39;;;;;;;13.30;11.27;;;18.60;99.90;;;;;;5110088;28;20448;-83
2021/06/17 01:16:26;;;;;;;9.90;9.00;;;18.40;99.90;;;;;;5109867;28;20408;-83
2021/06/17 01:18:56;;;;;;;14.77;10.60;;;18.30;99.90;;;;;;5109967;28;20407;-82
2021/06/17 01:21:49;;;;;;;11.10;10.03;;;18.20;99.90;;;;;;5108999;28;20416;-83
2021/06/17 01:24:41;;;;;;;10.70;9.60;;;18.20;99.90;;;;;;5108657;28;20416;-81
2021/06/17 01:27:44;;;;;;;11.23;10.20;;;18.20;99.90;;;;;;5110003;28;20503;-82
2021/06/17 01:30:12;;;;;;;11.63;10.40;;;18.20;99.90;;;;;;5109952;28;20412;-83
2021/06/17 01:32:41;;;;;;;11.30;10.20;;;18.40;99.90;;;;;;5109734;28;20440;-83
2021/06/17 01:35:09;;;;;;;14.50;10.73;;;18.30;99.90;;;;;;5109358;28;20446;-82
2021/06/17 01:37:38;;;;;;;11.13;10.00;;;18.30;99.90;;;;;;5109961;28;20534;-83
2021/06/17 01:40:06;;;;;;;10.20;9.20;;;18.30;99.90;;;;;;5110257;28;20460;-82
2021/06/17 01:42:33;;;;;;;10.40;9.40;;;18.30;99.90;;;;;;5109890;28;20492;-83
2021/06/17 01:45:01;;;;;;;10.17;9.17;;;18.40;99.90;;;;;;5109981;28;20431;-83
2021/06/17 01:47:29;;;;;;;10.37;9.43;;;18.40;99.90;;;;;;5110349;28;20405;-83
2021/06/17 01:49:56;;;;;;;13.17;9.87;;;18.40;99.90;;;;;;5110931;28;20396;-83
2021/06/17 01:52:24;;;;;;;13.03;11.40;;;18.60;99.90;;;;;;5112773;28;20467;-83
2021/06/17 01:54:50;;;;;;;10.53;9.73;;;18.80;99.90;;;;;;5112699;28;20389;-83
2021/06/17 01:57:19;;;;;;;11.90;10.13;;;19.10;99.90;;;;;;5111990;28;20424;-82
2021/06/17 01:59:47;;;;;;;13.23;9.50;;;19.30;99.90;;;;;;5109545;28;20408;-82
2021/06/17 02:02:15;;;;;;;10.63;9.60;;;19.40;99.90;;;;;;5109560;28;20401;-82
2021/06/17 02:04:41;;;;;;;9.83;8.83;;;19.50;99.90;;;;;;5109992;28;20403;-83
2021/06/17 02:07:13;;;;;;;10.03;9.07;;;19.60;99.90;;;;;;5110264;28;20391;-82
2021/06/17 02:09:40;;;;;;;11.00;10.00;;;19.70;99.90;;;;;;5110456;28;20449;-83
2021/06/17 02:12:06;;;;;;;9.67;8.87;;;19.70;99.90;;;;;;5110149;28;20467;-83
2021/06/17 02:14:33;;;;;;;9.80;9.00;;;19.70;99.90;;;;;;5109025;28;20404;-82
2021/06/17 02:17:02;;;;;;;10.30;9.47;;;19.80;99.90;;;;;;5110136;28;20427;-82
2021/06/17 02:19:32;;;;;;;10.70;9.57;;;19.80;99.90;;;;;;5109092;28;20427;-83
2021/06/17 02:22:04;;;;;;;10.13;9.23;;;19.70;99.90;;;;;;5108226;28;20479;-84
2021/06/17 02:24:35;;;;;;;11.30;10.20;;;19.40;99.90;;;;;;5108396;28;20491;-83
2021/06/17 02:27:12;;;;;;;23.10;10.37;;;19.30;99.90;;;;;;5109171;28;20457;-83
2021/06/17 02:29:42;;;;;;;11.37;10.37;;;18.90;99.90;;;;;;5108661;28;20841;-83
2021/06/17 02:32:12;;;;;;;10.13;9.13;;;18.80;99.90;;;;;;5108877;28;20444;-83
2021/06/17 02:34:42;;;;;;;11.23;10.13;;;19.00;99.90;;;;;;5109019;28;20962;-83
2021/06/17 02:37:09;;;;;;;11.30;10.20;;;19.30;99.90;;;;;;5110059;28;20397;-83
2021/06/17 02:39:35;;;;;;;11.67;10.57;;;19.40;99.90;;;;;;5111234;28;20812;-83
2021/06/17 02:42:02;;;;;;;9.33;8.53;;;19.40;99.90;;;;;;5119456;28;20409;-82
2021/06/17 02:44:31;;;;;;;12.47;9.90;;;19.50;99.90;;;;;;5116296;28;20403;-83
2021/06/17 02:46:57;;;;;;;15.70;10.97;;;19.50;99.90;;;;;;5117460;28;20422;-80
2021/06/17 02:49:23;;;;;;;12.03;10.83;;;19.40;99.90;;;;;;5117681;28;20413;-81
2021/06/17 02:51:49;;;;;;;16.83;10.30;;;19.50;99.90;;;;;;5114750;28;20869;-83
2021/06/17 02:54:18;;;;;;;11.57;10.47;;;19.50;99.90;;;;;;5109973;28;20453;-82
2021/06/17 02:57:06;;;;;;;10.93;9.93;;;19.60;99.90;;;;;;5108102;28;20421;-83
2021/06/17 03:00:01;;;;;;;11.00;9.50;;;19.60;99.90;;;;;;5108709;28;20407;-82
2021/06/17 03:02:37;;;;;;;11.13;9.27;;;19.60;99.90;;;;;;5108355;28;20474;-82
2021/06/17 03:05:20;;;;;;;13.70;9.87;;;19.50;99.90;;;;;;5107074;28;20415;-82
2021/06/17 03:08:10;;;;;;;10.87;9.87;;;19.50;99.90;;;;;;5107001;28;20432;-83
2021/06/17 03:10:36;;;;;;;15.80;9.90;;;19.60;99.90;;;;;;5107371;28;20485;-83
2021/06/17 03:13:04;;;;;;;9.47;8.40;;;19.60;99.90;;;;;;5107598;28;20440;-83
2021/06/17 03:15:33;;;;;;;12.23;9.70;;;19.60;99.90;;;;;;5108050;28;20408;-83
2021/06/17 03:18:03;;;;;;;11.10;10.00;;;19.60;99.90;;;;;;5107418;28;20400;-83
2021/06/17 03:20:32;;;;;;;10.90;9.97;;;19.50;99.90;;;;;;5106445;28;20401;-83
2021/06/17 03:23:02;;;;;;;11.33;10.30;;;19.50;99.90;;;;;;5105487;28;20417;-84
2021/06/17 03:25:29;;;;;;;11.40;10.40;;;19.60;99.90;;;;;;5106168;28;20415;-83
2021/06/17 03:27:56;;;;;;;12.10;10.60;;;19.50;99.90;;;;;;5090196;28;20413;-82
2021/06/17 03:30:26;;;;;;;10.97;9.93;;;19.40;99.90;;;;;;5106394;28;20441;-83
2021/06/17 03:32:54;;;;;;;10.90;9.97;;;19.10;99.90;;;;;;5105649;28;20578;-83
2021/06/17 03:35:21;;;;;;;12.07;10.70;;;19.00;99.90;;;;;;5105625;28;20442;-83
2021/06/17 03:37:50;;;;;;;12.20;10.87;;;18.90;99.90;;;;;;5088311;28;20419;-82
2021/06/17 03:40:17;;;;;;;11.47;10.37;;;18.90;99.90;;;;;;5104974;28;20448;-81
2021/06/17 03:42:46;;;;;;;12.50;11.30;;;18.90;99.90;;;;;;5106143;28;20428;-82
2021/06/17 03:45:13;;;;;;;9.53;8.37;;;18.90;99.90;;;;;;5105066;28;20501;-81
2021/06/17 03:47:44;;;;;;;12.73;10.33;;;19.10;99.90;;;;;;5105018;28;20472;-82
2021/06/17 03:50:12;;;;;;;12.40;11.10;;;19.10;99.90;;;;;;5105073;28;20408;-83
2021/06/17 03:52:39;;;;;;;21.60;10.40;;;19.30;99.90;;;;;;5105261;28;20456;-83
2021/06/17 03:55:07;;;;;;;14.10;11.30;;;19.40;99.90;;;;;;5107861;28;20408;-82
2021/06/17 03:57:33;;;;;;;10.27;9.27;;;19.40;99.90;;;;;;5107828;28;20399;-82
2021/06/17 03:59:59;;;;;;;12.23;11.03;;;19.40;99.90;;;;;;5107684;28;20412;-82
2021/06/17 04:02:28;;;;;;;10.93;9.93;;;19.50;99.90;;;;;;5110551;28;20436;-82
2021/06/17 04:04:55;;;;;;;11.97;10.83;;;19.60;99.90;;;;;;5111162;28;20468;-81
2021/06/17 04:07:25;;;;;;;11.30;10.20;;;19.60;99.90;;;;;;5109053;28;20397;-82
2021/06/17 04:09:57;;;;;;;11.57;10.47;;;19.60;99.90;;;;;;5106511;28;20873;-82
2021/06/17 04:12:25;;;;;;;11.80;10.80;;;19.60;99.90;;;;;;5107531;28;20444;-82
2021/06/17 04:14:53;;;;;;;13.97;10.80;;;19.60;99.90;;;;;;5107910;28;20397;-82
2021/06/17 04:17:23;;;;;;;11.50;10.43;;;19.60;99.90;;;;;;5107426;28;20396;-83
2021/06/17 04:19:50;;;;;;;10.90;9.53;;;19.70;99.90;;;;;;5105998;28;20503;-83
2021/06/17 04:22:18;;;;;;;11.70;10.77;;;19.80;99.90;;;;;;5105883;28;20759;-83
2021/06/17 04:24:54;;;;;;;11.27;10.27;;;19.80;99.90;;;;;;5107084;28;20430;-83
2021/06/17 04:27:23;;;;;;;12.80;11.50;;;19.70;99.90;;;;;;5089844;28;20396;-83
2021/06/17 04:29:51;;;;;;;12.17;11.00;;;19.80;99.90;;;;;;5090655;28;20454;-83
2021/06/17 04:32:17;;;;;;;14.07;10.77;;;19.90;99.90;;;;;;5106825;28;20440;-82
2021/06/17 04:34:44;;;;;;;12.30;11.17;;;19.90;99.90;;;;;;5110318;28;20393;-83
2021/06/17 04:37:14;;;;;;;11.00;10.00;;;20.00;99.90;;;;;;5118170;28;20428;-83
2021/06/17 04:39:41;;;;;;;11.77;10.50;;;20.10;99.90;;;;;;5117640;28;20468;-82
2021/06/17 04:42:08;;;;;;;13.50;11.33;;;20.10;99.90;;;;;;5096506;28;20393;-83
2021/06/17 04:44:38;;;;;;;14.27;10.57;;;20.10;99.90;;;;;;5108122;28;20485;-84
2021/06/17 04:47:06;;;;;;;11.27;10.27;;;20.20;99.90;;;;;;5103419;28;20790;-84
2021/06/17 04:49:35;;;;;;;11.90;10.60;;;20.20;99.90;;;;;;5102836;28;20400;-84
2021/06/17 04:52:04;;;;;;;11.60;10.50;;;20.20;99.90;;;;;;5085253;28;20440;-84
2021/06/17 04:54:29;;;;;;;13.20;10.00;;;20.30;99.90;;;;;;5102161;28;20978;-84
2021/06/17 04:56:55;;;;;;;11.53;10.63;;;20.30;99.90;;;;;;5103575;28;20428;-84
2021/06/17 04:59:21;;;;;;;12.70;11.27;;;20.40;99.90;;;;;;5102494;28;20159;-84
2021/06/17 05:01:49;;;;;;;12.13;10.87;;;20.40;99.90;;;;;;5102513;28;20639;-84
2021/06/17 05:04:17;;;;;;;12.33;10.40;;;20.40;99.90;;;;;;5104156;28;20468;-84
2021/06/17 05:06:53;;;;;;;13.47;11.17;;;20.40;99.90;;;;;;5104302;28;20393;-84
2021/06/17 05:12:00;;;;;;;13.57;12.17;;;20.60;99.90;;;;;;5102214;28;20447;-84
2021/06/17 05:14:26;;;;;;;14.33;10.97;;;20.60;99.90;;;;;;5085246;28;20404;-84
2021/06/17 05:16:54;;;;;;;13.03;11.20;;;20.70;99.90;;;;;;5103368;28;20166;-85
2021/06/17 05:19:19;;;;;;;13.30;12.00;;;20.70;99.90;;;;;;5103826;28;20160;-84
2021/06/17 05:21:45;;;;;;;12.43;10.57;;;20.70;99.90;;;;;;5104011;28;20401;-84
2021/06/17 05:24:11;;;;;;;11.27;10.10;;;20.70;99.90;;;;;;5102836;28;20321;-84
2021/06/17 05:26:37;;;;;;;12.17;10.40;;;20.70;99.90;;;;;;5104264;28;20223;-84
2021/06/17 05:29:05;;;;;;;11.80;10.70;;;20.80;99.90;;;;;;5105719;28;20277;-84
2021/06/17 05:31:31;;;;;;;11.53;10.50;;;20.90;99.90;;;;;;5112862;28;20389;-82
2021/06/17 05:33:57;;;;;;;12.17;9.57;;;21.00;99.90;;;;;;5136121;28;20392;-84
2021/06/17 05:36:23;;;;;;;14.10;11.47;;;21.10;99.90;;;;;;5139248;28;20395;-84
2021/06/17 05:38:51;;;;;;;12.53;11.20;;;21.10;99.90;;;;;;5138697;28;20145;-84
2021/06/17 05:41:17;;;;;;;14.63;11.07;;;21.10;99.90;;;;;;5139482;28;20229;-84
2021/06/17 05:43:43;;;;;;;11.07;10.00;;;21.10;99.90;;;;;;5134602;28;20418;-85
2021/06/17 05:46:09;;;;;;;11.63;10.53;;;21.20;99.90;;;;;;5124278;28;20396;-84
2021/06/17 05:48:36;;;;;;;13.23;9.97;;;21.20;99.90;;;;;;5122870;28;20165;-85
2021/06/17 05:51:02;;;;;;;11.43;10.23;;;21.20;99.90;;;;;;5140257;27;20402;-84
2021/06/17 05:53:28;;;;;;;14.23;10.13;;;21.20;99.90;;;;;;5123985;28;20500;-84
2021/06/17 05:55:54;;;;;;;13.07;10.80;;;21.30;99.90;;;;;;5123065;28;20755;-85
2021/06/17 05:58:20;;;;;;;12.00;10.70;;;21.20;99.90;;;;;;5123802;28;20193;-85
2021/06/17 06:00:46;;;;;;;12.77;11.07;;;21.30;99.90;;;;;;5106056;28;20861;-85
2021/06/17 06:03:12;;;;;;;20.50;12.23;;;21.40;99.90;;;;;;5122644;28;20165;-84
2021/06/17 06:05:37;;;;;;;13.17;11.00;;;21.60;99.90;;;;;;5122185;28;20598;-85
2021/06/17 06:08:11;;;;;;;12.67;11.47;;;21.80;99.90;;;;;;5121651;28;20229;-85
2021/06/17 06:10:57;;;;;;;12.43;11.23;;;21.90;99.90;;;;;;5127643;28;20160;-84
2021/06/17 06:13:22;;;;;;;14.57;12.00;;;22.10;99.90;;;;;;5137801;28;20471;-85
2021/06/17 06:15:48;;;;;;;12.17;11.10;;;22.20;99.90;;;;;;5138998;28;20487;-84
2021/06/17 06:18:15;;;;;;;13.20;10.60;;;22.20;99.90;;;;;;5127120;28;20198;-84
2021/06/17 06:20:43;;;;;;;13.53;11.10;;;22.20;99.90;;;;;;5092713;28;20168;-84
2021/06/17 06:23:11;;;;;;;11.87;10.27;;;22.20;99.90;;;;;;5094574;28;20440;-84
2021/06/17 06:25:39;;;;;;;11.80;10.73;;;22.20;99.90;;;;;;5093534;28;20433;-84
2021/06/17 06:28:05;;;;;;;16.70;11.20;;;22.50;99.90;;;;;;5099013;28;20523;-84
2021/06/17 06:30:34;;;;;;;11.60;10.50;;;22.50;99.90;;;;;;5099488;28;20417;-84
2021/06/17 06:33:02;;;;;;;10.13;9.07;;;22.60;99.90;;;;;;5088191;28;20905;-84
2021/06/17 06:35:28;;;;;;;9.73;8.83;;;22.70;99.90;;;;;;5090963;28;20441;-84
2021/06/17 06:37:57;;;;;;;10.83;9.73;;;22.80;99.90;;;;;;5086622;28;20933;-84
2021/06/17 06:40:25;;;;;;;10.63;9.57;;;23.00;99.90;;;;;;5066278;28;20636;-84
2021/06/17 06:42:52;;;;;;;11.03;9.93;;;23.00;99.90;;;;;;5069595;28;20444;-84
2021/06/17 06:45:18;;;;;;;12.67;8.93;;;23.00;99.90;;;;;;5102215;28;20436;-84
2021/06/17 06:47:44;;;;;;;10.80;8.53;;;23.00;99.90;;;;;;5081573;28;20432;-84
2021/06/17 06:50:11;;;;;;;10.30;9.07;;;23.10;99.90;;;;;;5095544;28;20421;-84
2021/06/17 06:52:37;;;;;;;14.03;9.10;;;23.20;99.90;;;;;;5093117;28;20292;-84
2021/06/17 06:55:06;;;;;;;9.83;8.93;;;23.30;99.90;;;;;;5087095;28;20411;-84
2021/06/17 06:57:32;;;;;;;9.17;8.27;;;23.30;99.90;;;;;;5072365;28;20417;-84
2021/06/17 06:59:58;;;;;;;11.30;9.10;;;23.30;99.90;;;;;;5089867;28;20429;-84
2021/06/17 07:02:24;;;;;;;8.37;7.67;;;23.40;99.90;;;;;;5086163;28;20509;-84
2021/06/17 07:04:50;;;;;;;8.40;7.53;;;23.30;99.90;;;;;;5095150;28;20433;-85
2021/06/17 07:07:16;;;;;;;7.83;7.03;;;23.30;99.90;;;;;;5099928;28;20270;-84
2021/06/17 07:09:42;;;;;;;6.80;6.20;;;23.50;99.90;;;;;;5097293;28;20190;-85
2021/06/17 07:12:08;;;;;;;9.80;6.53;;;23.70;99.90;;;;;;5100461;28;20285;-84
2021/06/17 07:14:34;;;;;;;8.50;7.13;;;23.60;99.90;;;;;;5102379;28;20241;-85
2021/06/17 07:17:03;;;;;;;8.57;7.73;;;23.80;99.90;;;;;;5102036;28;20411;-84
2021/06/17 07:19:29;;;;;;;8.93;7.23;;;23.80;99.90;;;;;;5102846;28;20405;-85
2021/06/17 07:21:55;;;;;;;11.70;7.53;;;23.90;99.90;;;;;;5107493;28;20432;-84
2021/06/17 07:24:24;;;;;;;9.73;7.23;;;23.90;99.90;;;;;;5112107;28;20255;-85
2021/06/17 07:26:52;;;;;;;8.40;7.10;;;24.00;99.90;;;;;;5085827;28;20250;-85
2021/06/17 07:29:19;;;;;;;7.10;6.50;;;24.00;99.90;;;;;;5069501;28;20425;-85
2021/06/17 07:31:46;;;;;;;7.10;6.40;;;24.10;99.90;;;;;;5084879;28;20448;-86
2021/06/17 07:34:15;;;;;;;8.93;6.47;;;24.10;99.90;;;;;;5081918;28;20753;-85
2021/06/17 07:36:42;;;;;;;7.73;7.00;;;24.20;99.90;;;;;;5080269;28;20397;-85
2021/06/17 07:39:09;;;;;;;8.40;7.70;;;24.30;99.90;;;;;;5081649;28;20386;-85
2021/06/17 07:41:36;;;;;;;7.73;7.07;;;24.30;99.90;;;;;;5083527;28;20413;-84
2021/06/17 07:44:03;;;;;;;8.47;7.77;;;24.40;99.90;;;;;;5063681;28;20501;-85
2021/06/17 07:46:29;;;;;;;7.13;6.47;;;24.40;99.90;;;;;;5065826;28;20453;-84
2021/06/17 07:48:58;;;;;;;7.77;6.93;;;24.40;99.90;;;;;;5088044;28;20427;-85
2021/06/17 07:51:25;;;;;;;7.20;6.60;;;24.50;99.90;;;;;;5095325;28;20159;-85
2021/06/17 07:53:53;;;;;;;5.67;5.17;;;24.60;99.90;;;;;;5096454;28;20427;-85
2021/06/17 07:56:19;;;;;;;5.73;5.30;;;24.70;99.90;;;;;;5063019;28;20406;-85
2021/06/17 07:58:47;;;;;;;6.83;6.13;;;24.80;99.90;;;;;;5088306;28;20484;-85
2021/06/17 08:01:16;;;;;;;6.20;5.70;;;24.90;99.90;;;;;;5080314;28;20400;-85
2021/06/17 08:03:45;;;;;;;8.53;6.10;;;25.00;99.90;;;;;;5062680;28;20413;-85
2021/06/17 08:06:14;;;;;;;7.33;6.50;;;25.00;99.90;;;;;;5063355;28;20476;-85
2021/06/17 08:08:40;;;;;;;5.77;5.37;;;25.10;99.90;;;;;;5063489;28;20425;-85
2021/06/17 08:11:07;;;;;;;6.57;5.80;;;25.20;99.90;;;;;;5047776;28;20398;-85
2021/06/17 08:13:33;;;;;;;6.10;5.50;;;25.30;99.90;;;;;;5079205;28;20767;-85
2021/06/17 08:15:58;;;;;;;6.10;5.63;;;25.20;99.90;;;;;;5078762;28;20496;-85
2021/06/17 08:18:35;;;;;;;7.03;5.90;;;25.30;99.90;;;;;;5078932;28;20183;-86
2021/06/17 08:21:18;;;;;;;8.37;7.57;;;25.40;99.90;;;;;;5046376;28;20179;-85
2021/06/17 08:23:47;;;;;;;7.23;6.63;;;25.40;99.90;;;;;;5062544;28;20436;-85
2021/06/17 08:26:16;;;;;;;12.03;6.93;;;25.50;99.90;;;;;;5063114;28;20424;-85
2021/06/17 08:28:41;;;;;;;7.00;6.40;;;25.50;99.90;;;;;;5063037;28;20406;-85
2021/06/17 08:31:09;;;;;;;6.20;5.60;;;25.60;99.90;;;;;;5078019;28;20441;-85
2021/06/17 08:33:37;;;;;;;6.40;5.90;;;25.70;99.90;;;;;;5062019;28;20211;-85
2021/06/17 08:36:07;;;;;;;7.20;6.50;;;25.90;99.90;;;;;;5079946;28;20957;-85
2021/06/17 08:38:34;;;;;;;6.40;5.07;;;25.90;99.90;;;;;;5058601;28;20968;-85
2021/06/17 08:41:01;;;;;;;5.70;5.30;;;26.00;99.90;;;;;;5078933;28;20556;-85
2021/06/17 08:43:30;;;;;;;5.73;5.13;;;26.10;99.90;;;;;;5093804;28;20417;-84
2021/06/17 08:45:56;;;;;;;9.17;4.90;;;26.10;99.90;;;;;;5125817;28;20403;-85
2021/06/17 08:48:23;;;;;;;5.70;5.20;;;26.20;99.90;;;;;;5123124;28;20431;-85
2021/06/17 08:50:49;;;;;;;6.63;6.13;;;26.30;99.90;;;;;;5085416;28;20400;-85
2021/06/17 08:53:15;;;;;;;5.80;5.30;;;26.30;99.90;;;;;;5087171;28;20489;-85
2021/06/17 08:55:41;;;;;;;6.60;6.00;;;26.40;99.90;;;;;;5097465;28;20419;-84
2021/06/17 08:58:11;;;;;;;6.50;6.00;;;26.40;99.90;;;;;;5099818;28;20924;-85
2021/06/17 09:00:39;;;;;;;5.73;5.23;;;26.40;99.90;;;;;;5102226;28;20412;-85
2021/06/17 09:03:08;;;;;;;6.90;6.30;;;26.50;99.90;;;;;;5100499;28;20873;-86
2021/06/17 09:05:38;;;;;;;6.27;5.67;;;26.60;99.90;;;;;;5100269;28;20864;-85
2021/06/17 09:08:06;;;;;;;6.40;5.80;;;26.70;99.90;;;;;;5081825;28;20936;-86
2021/06/17 09:10:33;;;;;;;6.20;5.60;;;26.70;99.90;;;;;;5101149;28;20499;-85
2021/06/17 09:13:02;;;;;;;9.10;6.30;;;26.80;99.90;;;;;;5101595;28;20455;-85
2021/06/17 09:15:40;;;;;;;6.40;5.60;;;26.80;99.90;;;;;;5098462;28;20473;-85
2021/06/17 09:18:20;;;;;;;6.70;6.10;;;27.00;99.90;;;;;;5107171;28;20410;-84
2021/06/17 09:20:53;;;;;;;6.40;5.60;;;27.00;99.90;;;;;;5110088;28;20444;-85
2021/06/17 09:23:26;;;;;;;7.90;5.60;;;27.10;99.90;;;;;;5099588;28;20420;-85
2021/06/17 09:25:58;;;;;;;6.30;5.70;;;27.10;99.90;;;;;;5097876;28;20472;-85
2021/06/17 09:28:24;;;;;;;5.73;5.23;;;27.20;99.90;;;;;;5100244;28;20874;-85
2021/06/17 09:30:55;;;;;;;8.10;6.13;;;27.30;99.90;;;;;;5103144;28;20396;-85
2021/06/17 09:33:25;;;;;;;8.00;6.23;;;27.30;99.90;;;;;;5080099;28;20823;-85
2021/06/17 09:35:55;;;;;;;6.63;6.13;;;27.30;99.90;;;;;;5080937;28;20467;-85
2021/06/17 09:38:22;;;;;;;6.03;4.77;;;27.30;99.90;;;;;;5081597;28;20417;-85
2021/06/17 09:40:51;;;;;;;6.57;6.00;;;27.20;99.90;;;;;;5020705;28;20472;-85
2021/06/17 09:43:21;;;;;;;5.73;5.33;;;27.40;99.90;;;;;;5020983;28;20463;-85
2021/06/17 09:46:06;;;;;;;6.40;5.90;;;27.60;99.90;;;;;;5022636;28;21013;-85
2021/06/17 09:48:36;;;;;;;6.50;5.90;;;27.60;99.90;;;;;;5020343;28;20560;-84
2021/06/17 09:51:34;;;;;;;7.03;5.90;;;27.60;99.90;;;;;;4972383;28;20457;-86
2021/06/17 09:54:23;;;;;;;8.13;6.30;;;27.60;99.90;;;;;;5019744;28;20548;-85
2021/06/17 09:56:53;;;;;;;5.83;5.33;;;27.70;99.90;;;;;;5020174;28;20431;-85
2021/06/17 09:59:41;;;;;;;6.40;5.80;;;27.80;99.90;;;;;;5004628;28;20450;-84
2021/06/17 10:02:10;;;;;;;6.67;6.03;;;28.00;99.90;;;;;;5021025;28;20459;-86
2021/06/17 10:04:37;;;;;;;8.10;7.30;;;28.20;99.90;;;;;;5046665;28;20508;-84
2021/06/17 10:07:03;;;;;;;7.13;6.47;;;28.00;99.90;;;;;;5047040;28;20441;-86
2021/06/17 10:09:29;;;;;;;6.57;5.83;;;28.20;99.90;;;;;;4986467;28;20462;-84
2021/06/17 10:11:57;;;;;;;7.30;6.07;;;28.30;99.90;;;;;;4985313;28;20523;-83
2021/06/17 10:14:23;;;;;;;7.00;6.30;;;28.20;99.90;;;;;;5001486;28;20416;-85
2021/06/17 10:16:52;;;;;;;6.30;5.80;;;28.50;99.90;;;;;;5001774;28;20393;-83
2021/06/17 10:19:20;;;;;;;7.57;6.90;;;28.50;99.90;;;;;;5038693;28;20433;-83
2021/06/17 10:21:47;;;;;;;6.37;5.97;;;28.60;99.90;;;;;;5041780;28;20415;-85
2021/06/17 10:24:17;;;;;;;5.50;5.10;;;28.80;99.90;;;;;;5030019;28;20423;-85
2021/06/17 10:26:51;;;;;;;6.03;5.43;;;28.90;99.90;;;;;;5054017;28;20414;-85
2021/06/17 10:29:41;;;;;;;5.90;5.30;;;29.00;99.90;;;;;;5053659;28;20439;-85
2021/06/17 10:32:16;;;;;;;8.43;5.70;;;29.00;99.90;;;;;;5043953;28;20463;-85
2021/06/17 10:34:47;;;;;;;7.80;5.30;;;29.30;99.90;;;;;;5032800;28;20540;-84
2021/06/17 10:37:25;;;;;;;5.30;4.80;;;29.40;99.90;;;;;;5041869;28;20435;-84
2021/06/17 10:40:02;;;;;;;5.50;4.63;;;29.50;99.90;;;;;;5033710;28;20478;-84
2021/06/17 10:42:33;;;;;;;4.97;4.50;;;29.60;98.90;;;;;;5080115;28;20931;-85
2021/06/17 10:45:01;;;;;;;4.73;4.33;;;29.80;98.80;;;;;;5079946;28;20417;-85
2021/06/17 10:47:51;;;;;;;5.20;4.80;;;29.70;99.80;;;;;;5092955;28;20479;-84
2021/06/17 10:50:32;;;;;;;5.47;5.07;;;29.90;99.10;;;;;;5088932;28;20441;-85
2021/06/17 10:53:17;;;;;;;5.20;4.80;;;30.00;97.30;;;;;;5102905;28;20443;-85
2021/06/17 10:55:54;;;;;;;6.93;5.10;;;30.10;96.30;;;;;;5102248;28;20539;-85
2021/06/17 10:58:53;;;;;;;4.77;4.37;;;29.90;96.10;;;;;;5102731;28;20477;-85
2021/06/17 11:01:33;;;;;;;6.20;5.20;;;30.10;95.40;;;;;;5102123;28;20400;-86
2021/06/17 11:04:02;;;;;;;4.77;4.47;;;30.00;95.30;;;;;;5103206;28;20396;-86
2021/06/17 11:06:50;;;;;;;5.50;5.00;;;30.10;95.50;;;;;;5102257;28;20765;-85
2021/06/17 11:09:46;;;;;;;5.07;4.70;;;30.30;95.10;;;;;;5104617;28;20904;-85
2021/06/17 11:12:37;;;;;;;7.23;6.30;;;30.50;95.80;;;;;;5102803;28;20452;-84
2021/06/17 11:15:03;;;;;;;6.30;5.70;;;30.30;95.70;;;;;;5103067;28;20397;-85
2021/06/17 11:17:44;;;;;;;5.70;5.10;;;30.40;95.40;;;;;;5083619;28;20403;-85
2021/06/17 11:20:17;;;;;;;5.10;4.70;;;30.70;94.40;;;;;;5100386;28;20392;-85
2021/06/17 11:22:50;;;;;;;7.50;6.80;;;30.90;94.60;;;;;;5100125;28;20400;-85
2021/06/17 11:25:21;;;;;;;7.47;6.07;;;30.60;93.70;;;;;;5102380;28;20431;-85
2021/06/17 11:28:02;;;;;;;6.33;5.10;;;30.60;93.40;;;;;;5101703;28;20558;-85
2021/06/17 11:31:03;;;;;;;6.10;5.60;;;30.60;92.70;;;;;;5100015;28;20457;-86
2021/06/17 11:33:33;;;;;;;5.40;4.80;;;30.50;92.70;;;;;;5099959;28;20454;-85
2021/06/17 11:36:03;;;;;;;5.53;5.03;;;30.60;92.50;;;;;;5101762;28;20424;-85
2021/06/17 11:38:33;;;;;;;4.97;4.57;;;30.70;92.50;;;;;;5100837;28;20533;-85
2021/06/17 11:41:10;;;;;;;4.03;3.80;;;30.70;91.80;;;;;;5063913;28;20461;-85
2021/06/17 11:43:36;;;;;;;6.47;5.40;;;30.70;92.70;;;;;;5082591;28;20507;-85
2021/06/17 11:46:02;;;;;;;4.60;4.10;;;30.80;92.40;;;;;;5092294;28;20475;-85
2021/06/17 11:48:29;;;;;;;4.80;4.40;;;31.20;87.50;;;;;;5083868;28;20227;-84
2021/06/17 11:50:55;;;;;;;5.03;4.73;;;31.10;86.60;;;;;;5102810;28;20181;-83
2021/06/17 11:53:25;;;;;;;4.20;3.90;;;31.30;85.00;;;;;;5108356;28;20817;-86
2021/06/17 11:55:54;;;;;;;4.90;4.50;;;31.10;85.30;;;;;;5118372;28;20430;-85
2021/06/17 11:58:25;;;;;;;4.27;3.87;;;31.10;85.90;;;;;;5125147;28;20447;-86
2021/06/17 12:00:51;;;;;;;5.13;4.63;;;31.30;86.50;;;;;;5092476;28;20399;-85
2021/06/17 12:03:25;;;;;;;4.13;3.80;;;31.40;83.40;;;;;;5114667;28;20416;-85
2021/06/17 12:06:13;;;;;;;4.67;4.27;;;31.80;82.20;;;;;;5114087;28;20454;-85
2021/06/17 12:08:39;;;;;;;5.93;4.93;;;32.00;86.10;;;;;;5100247;28;20507;-85
2021/06/17 12:11:24;;;;;;;3.97;3.70;;;31.90;78.70;;;;;;5097781;28;20166;-84
2021/06/17 12:13:52;;;;;;;4.50;4.15;;;31.80;75.90;;;;;;5098609;28;20189;-86
2021/06/17 12:16:20;;;;;;;3.80;3.53;;;31.80;74.80;;;;;;5099417;28;20188;-84
2021/06/17 12:18:46;;;;;;;4.85;3.80;;;32.00;74.30;;;;;;5100453;28;20189;-84
2021/06/17 12:21:28;;;;;;;6.57;4.00;;;32.00;74.90;;;;;;5104388;28;20502;-88
2021/06/17 12:23:54;;;;;;;4.68;4.28;;;31.70;75.50;;;;;;5100961;28;20158;-86
2021/06/17 12:26:21;;;;;;;4.50;3.70;;;32.10;74.00;;;;;;5101992;28;20158;-86
2021/06/17 12:28:50;;;;;;;7.05;3.95;;;32.20;71.90;;;;;;5085119;28;20173;-86
2021/06/17 12:31:26;;;;;;;6.15;4.45;;;32.20;72.40;;;;;;5102957;28;20324;-85
2021/06/17 12:34:04;;;;;;;6.53;4.35;;;32.10;71.30;;;;;;5104760;28;20182;-85
2021/06/17 12:36:30;;;;;;;4.55;4.10;;;32.20;70.30;;;;;;5105790;28;20197;-86
2021/06/17 12:39:08;;;;;;;6.65;4.70;;;32.60;73.10;;;;;;5100884;28;20175;-85
2021/06/17 12:41:42;;;;;;;4.90;4.55;;;33.10;75.30;;;;;;5096874;28;20193;-85
2021/06/17 12:44:08;;;;;;;4.45;4.15;;;32.70;71.70;;;;;;5092876;28;20170;-85
2021/06/17 12:46:38;;;;;;;3.90;3.63;;;32.50;71.70;;;;;;5116790;28;20197;-85
2021/06/17 12:49:26;;;;;;;4.40;4.00;;;33.10;69.20;;;;;;5116196;28;20150;-85
2021/06/17 12:54:51;;;;;;;3.95;3.63;;;34.00;64.90;;;;;;5089467;28;20193;-85
2021/06/17 12:57:20;;;;;;;3.85;3.58;;;34.40;62.70;;;;;;5079587;28;20159;-84
2021/06/17 13:00:04;;;;;;;3.88;3.58;;;34.60;62.20;;;;;;5083128;28;20179;-84